Time;durP1;ratioP1;P1;durP2;ratioP2;P2;SDS_P1;SDS_P2;PMS_P1;PMS_P2;Temp;Humidity;BMP_temperature;BMP_pressure;BME280_temperature;BME280_humidity;BME280_pressure;Samples;Min_cycle;Max_cycle;Signal;HPM_P1;HPM_P2
2021/06/09 00:01:59;;;;;;;17.65;12.85;;;;;;;;;;4986605;28;20057;-73
2021/06/09 00:04:24;;;;;;;17.08;11.77;;;;;;;;;;4980811;28;20089;-73
2021/06/09 00:06:50;;;;;;;13.85;11.35;;;;;;;;;;4986841;28;20062;-73
2021/06/09 00:09:17;;;;;;;15.18;11.93;;;;;;;;;;4998658;28;20040;-74
2021/06/09 00:11:43;;;;;;;13.38;11.00;;;;;;;;;;4954569;28;20035;-73
2021/06/09 00:14:09;;;;;;;15.77;11.60;;;;;;;;;;4972156;28;20395;-73
2021/06/09 00:16:35;;;;;;;16.60;11.85;;;;;;;;;;4981974;28;20124;-75
2021/06/09 00:19:00;;;;;;;12.30;11.00;;;;;;;;;;4981147;28;20156;-74
2021/06/09 00:21:26;;;;;;;15.10;11.55;;;;;;;;;;4981865;28;20489;-74
2021/06/09 00:23:52;;;;;;;16.75;12.80;;;;;;;;;;4989434;28;20034;-73
2021/06/09 00:26:18;;;;;;;20.63;12.38;;;;;;;;;;4983864;28;20403;-73
2021/06/09 00:28:45;;;;;;;23.25;13.07;;;;;;;;;;4980811;28;20030;-73
2021/06/09 00:31:11;;;;;;;28.48;14.45;;;;;;;;;;4986640;28;20035;-74
2021/06/09 00:33:37;;;;;;;27.95;13.95;;;;;;;;;;4971401;28;20438;-74
2021/06/09 00:36:04;;;;;;;17.88;12.27;;;;;;;;;;5002590;28;20038;-74
2021/06/09 00:38:31;;;;;;;21.60;12.13;;;;;;;;;;4985783;28;20624;-74
2021/06/09 00:40:58;;;;;;;13.90;11.77;;;;;;;;;;4986516;28;20034;-73
2021/06/09 00:43:27;;;;;;;15.52;12.02;;;;;;;;;;4989654;28;20015;-74
2021/06/09 00:46:06;;;;;;;17.85;12.55;;;;;;;;;;4985250;28;20054;-74
2021/06/09 00:48:32;;;;;;;17.33;12.25;;;;;;;;;;4975280;28;20458;-74
2021/06/09 00:51:01;;;;;;;13.98;11.95;;;;;;;;;;4979850;28;20034;-73
2021/06/09 00:53:28;;;;;;;14.27;12.82;;;;;;;;;;4984898;28;20050;-73
2021/06/09 00:55:55;;;;;;;17.58;13.75;;;;;;;;;;4990722;28;20034;-74
2021/06/09 00:58:22;;;;;;;15.07;12.77;;;;;;;;;;4989414;28;20935;-74
2021/06/09 01:00:48;;;;;;;18.13;14.02;;;;;;;;;;4988445;28;20072;-73
2021/06/09 01:03:14;;;;;;;19.60;12.65;;;;;;;;;;4989664;28;20018;-74
2021/06/09 01:05:40;;;;;;;16.55;13.27;;;;;;;;;;4990778;28;20438;-74
2021/06/09 01:08:07;;;;;;;18.45;14.00;;;;;;;;;;4985764;28;20026;-73
2021/06/09 01:10:34;;;;;;;29.17;15.85;;;;;;;;;;4970386;28;20279;-74
2021/06/09 01:13:03;;;;;;;18.63;13.07;;;;;;;;;;4954554;28;20579;-74
2021/06/09 01:15:30;;;;;;;18.17;14.18;;;;;;;;;;4962225;28;20039;-74
2021/06/09 01:17:57;;;;;;;15.50;13.00;;;;;;;;;;4971371;28;20030;-74
2021/06/09 01:20:23;;;;;;;20.33;13.30;;;;;;;;;;4970304;28;20089;-73
2021/06/09 01:22:49;;;;;;;15.77;13.55;;;;;;;;;;5000562;28;20073;-74
2021/06/09 01:25:14;;;;;;;17.60;13.48;;;;;;;;;;4985757;28;20480;-73
2021/06/09 01:27:40;;;;;;;20.73;13.85;;;;;;;;;;4977259;28;20084;-74
2021/06/09 01:30:10;;;;;;;18.77;14.05;;;;;;;;;;4988940;28;20112;-74
2021/06/09 01:32:36;;;;;;;15.98;13.25;;;;;;;;;;4973552;28;20027;-74
2021/06/09 01:35:04;;;;;;;16.42;13.27;;;;;;;;;;4985432;28;20427;-75
2021/06/09 01:37:30;;;;;;;17.20;13.07;;;;;;;;;;4982622;28;20027;-73
2021/06/09 01:39:59;;;;;;;19.65;13.82;;;;;;;;;;5005616;28;20058;-74
2021/06/09 01:42:30;;;;;;;18.05;14.07;;;;;;;;;;4971081;28;20062;-74
2021/06/09 01:44:57;;;;;;;17.48;13.43;;;;;;;;;;4985313;28;20136;-75
2021/06/09 01:47:23;;;;;;;22.00;13.80;;;;;;;;;;4985797;28;20046;-74
2021/06/09 01:49:49;;;;;;;17.88;13.80;;;;;;;;;;4970914;28;20179;-74
2021/06/09 01:52:18;;;;;;;24.70;15.02;;;;;;;;;;4986458;28;20033;-73
2021/06/09 01:54:45;;;;;;;31.60;15.57;;;;;;;;;;4988242;28;20077;-74
2021/06/09 01:57:13;;;;;;;21.00;12.82;;;;;;;;;;4987479;28;20030;-74
2021/06/09 01:59:39;;;;;;;23.73;15.02;;;;;;;;;;4992425;28;20038;-73
2021/06/09 02:02:05;;;;;;;15.65;13.40;;;;;;;;;;4973692;28;20418;-74
2021/06/09 02:04:30;;;;;;;25.70;15.02;;;;;;;;;;4970777;28;20173;-74
2021/06/09 02:06:56;;;;;;;15.80;13.52;;;;;;;;;;4985600;28;20169;-72
2021/06/09 02:09:22;;;;;;;17.63;14.90;;;;;;;;;;4979178;28;20478;-73
2021/06/09 02:11:49;;;;;;;16.25;13.45;;;;;;;;;;4988654;28;20149;-74
2021/06/09 02:14:19;;;;;;;17.92;13.90;;;;;;;;;;4985263;28;20547;-75
2021/06/09 02:16:50;;;;;;;15.75;13.95;;;;;;;;;;4982777;28;20038;-73
2021/06/09 02:19:16;;;;;;;19.77;13.95;;;;;;;;;;4988331;28;20023;-74
2021/06/09 02:21:42;;;;;;;16.88;13.90;;;;;;;;;;4990652;28;20034;-74
2021/06/09 02:24:10;;;;;;;16.60;12.98;;;;;;;;;;4993387;28;20030;-74
2021/06/09 02:26:37;;;;;;;16.30;14.50;;;;;;;;;;4985670;28;20479;-74
2021/06/09 02:29:07;;;;;;;18.15;14.73;;;;;;;;;;4973642;28;20107;-75
2021/06/09 02:31:32;;;;;;;19.50;13.88;;;;;;;;;;4973891;28;20066;-76
2021/06/09 02:33:59;;;;;;;15.55;13.02;;;;;;;;;;4981134;28;20120;-76
2021/06/09 02:36:25;;;;;;;17.85;13.65;;;;;;;;;;4993235;28;20030;-73
2021/06/09 02:38:51;;;;;;;17.15;14.48;;;;;;;;;;4991926;28;20026;-73
2021/06/09 02:41:18;;;;;;;20.38;15.90;;;;;;;;;;4982799;28;20125;-73
2021/06/09 02:43:45;;;;;;;17.88;15.00;;;;;;;;;;4988814;28;20089;-74
2021/06/09 02:46:35;;;;;;;22.17;15.55;;;;;;;;;;4988083;28;20101;-74
2021/06/09 02:49:08;;;;;;;16.58;14.80;;;;;;;;;;4981606;28;20433;-74
2021/06/09 02:51:57;;;;;;;15.50;13.93;;;;;;;;;;4992419;28;20045;-75
2021/06/09 02:54:36;;;;;;;23.25;15.10;;;;;;;;;;4991782;28;20114;-74
2021/06/09 02:57:25;;;;;;;22.73;14.95;;;;;;;;;;4992612;28;20026;-74
2021/06/09 03:00:11;;;;;;;18.98;14.23;;;;;;;;;;4977858;28;20041;-75
2021/06/09 03:03:01;;;;;;;19.23;14.23;;;;;;;;;;4973119;28;20043;-76
2021/06/09 03:05:33;;;;;;;17.08;14.63;;;;;;;;;;4973100;28;20030;-74
2021/06/09 03:08:05;;;;;;;21.80;14.45;;;;;;;;;;4986092;28;20105;-76
2021/06/09 03:10:34;;;;;;;18.67;14.07;;;;;;;;;;4992710;28;20079;-76
2021/06/09 03:13:04;;;;;;;22.73;14.57;;;;;;;;;;4990590;28;20030;-75
2021/06/09 03:15:54;;;;;;;19.30;15.75;;;;;;;;;;4987996;28;20031;-75
2021/06/09 03:18:27;;;;;;;19.77;14.13;;;;;;;;;;4971034;28;20499;-76
2021/06/09 03:21:14;;;;;;;20.00;14.50;;;;;;;;;;4986682;28;20479;-75
2021/06/09 03:24:01;;;;;;;19.00;15.02;;;;;;;;;;4992315;28;20038;-74
2021/06/09 03:26:41;;;;;;;20.77;14.98;;;;;;;;;;4986065;28;20380;-75
2021/06/09 03:29:28;;;;;;;17.52;14.23;;;;;;;;;;4972603;28;20054;-75
2021/06/09 03:31:59;;;;;;;19.80;13.75;;;;;;;;;;4972388;28;20041;-74
2021/06/09 03:34:30;;;;;;;17.35;14.15;;;;;;;;;;4971896;28;20475;-75
2021/06/09 03:37:01;;;;;;;21.25;14.75;;;;;;;;;;4972821;28;20042;-75
2021/06/09 03:39:29;;;;;;;18.80;14.37;;;;;;;;;;4988866;28;20435;-76
2021/06/09 03:41:58;;;;;;;19.50;14.50;;;;;;;;;;4989865;28;20039;-76
2021/06/09 03:44:36;;;;;;;18.58;14.13;;;;;;;;;;4990210;28;20120;-75
2021/06/09 03:47:03;;;;;;;24.70;13.75;;;;;;;;;;4975431;28;20050;-75
2021/06/09 03:49:30;;;;;;;18.90;15.15;;;;;;;;;;4983233;28;20569;-75
2021/06/09 03:51:56;;;;;;;23.45;15.88;;;;;;;;;;4971344;28;20023;-76
2021/06/09 03:54:23;;;;;;;24.90;15.32;;;;;;;;;;4971962;28;20031;-75
2021/06/09 03:56:51;;;;;;;20.50;14.98;;;;;;;;;;4971878;28;20423;-76
2021/06/09 03:59:21;;;;;;;22.63;15.77;;;;;;;;;;5004828;28;20019;-74
2021/06/09 04:01:48;;;;;;;21.45;15.40;;;;;;;;;;4980678;28;20482;-76
2021/06/09 04:04:19;;;;;;;23.88;15.30;;;;;;;;;;4991057;28;20106;-75
2021/06/09 04:06:46;;;;;;;21.48;16.10;;;;;;;;;;4989318;28;20115;-75
2021/06/09 04:09:17;;;;;;;18.17;15.55;;;;;;;;;;4981276;28;20464;-75
2021/06/09 04:11:45;;;;;;;18.50;15.18;;;;;;;;;;4973677;28;20038;-76
2021/06/09 04:14:17;;;;;;;24.05;15.80;;;;;;;;;;4989393;28;20062;-77
2021/06/09 04:16:44;;;;;;;18.70;14.88;;;;;;;;;;4985334;28;20034;-75
2021/06/09 04:19:12;;;;;;;20.73;14.25;;;;;;;;;;4989336;28;20041;-76
2021/06/09 04:21:38;;;;;;;19.90;15.30;;;;;;;;;;4989261;28;20057;-76
2021/06/09 04:24:04;;;;;;;18.08;14.43;;;;;;;;;;4989072;28;20034;-78
2021/06/09 04:26:33;;;;;;;24.88;15.30;;;;;;;;;;4976448;28;20039;-75
2021/06/09 04:29:03;;;;;;;21.80;15.20;;;;;;;;;;4997351;28;20041;-76
2021/06/09 04:31:30;;;;;;;21.63;15.52;;;;;;;;;;4971310;28;20085;-77
2021/06/09 04:33:56;;;;;;;20.80;14.98;;;;;;;;;;4972418;28;20062;-76
2021/06/09 04:36:22;;;;;;;20.75;16.00;;;;;;;;;;4971357;28;20031;-76
2021/06/09 04:38:48;;;;;;;18.83;15.38;;;;;;;;;;4986029;28;20192;-75
2021/06/09 04:41:13;;;;;;;20.30;14.68;;;;;;;;;;4972248;28;20374;-76
2021/06/09 04:43:40;;;;;;;22.67;15.52;;;;;;;;;;4989368;28;20316;-75
2021/06/09 04:46:06;;;;;;;25.33;16.00;;;;;;;;;;4988373;28;20058;-75
2021/06/09 04:48:32;;;;;;;22.30;14.82;;;;;;;;;;4988705;28;20489;-75
2021/06/09 04:50:58;;;;;;;17.55;15.07;;;;;;;;;;4983229;28;20026;-74
2021/06/09 04:53:23;;;;;;;21.25;15.18;;;;;;;;;;4986044;28;20041;-76
2021/06/09 04:55:51;;;;;;;19.40;13.90;;;;;;;;;;4988033;28;20391;-77
2021/06/09 04:58:18;;;;;;;19.30;15.00;;;;;;;;;;4972799;28;20062;-75
2021/06/09 05:00:46;;;;;;;20.67;15.25;;;;;;;;;;4981193;28;20034;-75
2021/06/09 05:03:12;;;;;;;20.50;14.95;;;;;;;;;;4971872;28;20259;-75
2021/06/09 05:05:38;;;;;;;21.50;16.38;;;;;;;;;;4991055;28;20498;-76
2021/06/09 05:08:04;;;;;;;24.17;15.23;;;;;;;;;;5008984;28;20030;-76
2021/06/09 05:10:30;;;;;;;20.90;16.50;;;;;;;;;;4998627;28;20023;-78
2021/06/09 05:13:06;;;;;;;27.00;15.93;;;;;;;;;;4978214;28;20039;-76
2021/06/09 05:15:37;;;;;;;21.67;14.82;;;;;;;;;;4983121;28;20046;-77
2021/06/09 05:18:08;;;;;;;18.90;14.65;;;;;;;;;;4986900;28;20022;-77
2021/06/09 05:20:38;;;;;;;33.92;16.42;;;;;;;;;;4981732;28;20037;-77
2021/06/09 05:23:13;;;;;;;23.63;15.10;;;;;;;;;;4979715;28;20601;-76
2021/06/09 05:25:40;;;;;;;23.58;15.35;;;;;;;;;;4988718;28;20471;-76
2021/06/09 05:28:08;;;;;;;22.05;15.30;;;;;;;;;;4988235;28;20045;-76
2021/06/09 05:30:35;;;;;;;23.85;14.70;;;;;;;;;;4973432;28;20105;-75
2021/06/09 05:33:01;;;;;;;19.00;14.63;;;;;;;;;;4981973;28;20038;-77
2021/06/09 05:35:27;;;;;;;18.25;14.30;;;;;;;;;;4976896;28;20040;-75
2021/06/09 05:37:54;;;;;;;18.63;14.00;;;;;;;;;;4974857;28;20050;-75
2021/06/09 05:40:20;;;;;;;25.10;14.52;;;;;;;;;;4978712;28;20030;-76
2021/06/09 05:42:47;;;;;;;22.58;17.33;;;;;;;;;;4986847;28;20490;-76
2021/06/09 05:45:13;;;;;;;26.15;16.25;;;;;;;;;;4987805;28;20085;-76
2021/06/09 05:47:44;;;;;;;22.38;15.68;;;;;;;;;;4989703;28;20138;-76
2021/06/09 05:50:20;;;;;;;17.10;14.48;;;;;;;;;;4977730;28;20037;-75
2021/06/09 05:52:47;;;;;;;21.58;15.90;;;;;;;;;;4981438;28;20026;-75
2021/06/09 05:55:15;;;;;;;23.45;15.00;;;;;;;;;;4982796;28;20130;-75
2021/06/09 05:57:41;;;;;;;25.75;15.60;;;;;;;;;;4993442;28;20031;-75
2021/06/09 06:00:09;;;;;;;17.95;14.65;;;;;;;;;;4988082;28;20475;-77
2021/06/09 06:02:36;;;;;;;20.52;13.88;;;;;;;;;;4993683;28;20437;-77
2021/06/09 06:05:05;;;;;;;21.52;15.30;;;;;;;;;;4972267;28;20149;-75
2021/06/09 06:07:33;;;;;;;20.38;15.02;;;;;;;;;;4987388;28;20300;-79
2021/06/09 06:10:00;;;;;;;21.42;14.88;;;;;;;;;;5007492;28;20036;-78
2021/06/09 06:12:26;;;;;;;19.30;14.73;;;;;;;;;;4998075;28;20039;-75
2021/06/09 06:14:54;;;;;;;22.08;14.85;;;;;;;;;;4978028;28;20022;-76
2021/06/09 06:17:20;;;;;;;21.83;14.68;;;;;;;;;;4962560;28;20121;-76
2021/06/09 06:19:49;;;;;;;23.77;15.13;;;;;;;;;;4984410;28;20109;-77
2021/06/09 06:22:15;;;;;;;19.98;15.13;;;;;;;;;;4979066;28;20494;-75
2021/06/09 06:24:43;;;;;;;22.67;16.52;;;;;;;;;;4987159;28;20049;-75
2021/06/09 06:27:10;;;;;;;18.98;15.07;;;;;;;;;;4990503;28;20113;-75
2021/06/09 06:29:38;;;;;;;22.98;15.38;;;;;;;;;;4985526;28;20026;-78
2021/06/09 06:32:08;;;;;;;18.67;13.35;;;;;;;;;;4979096;28;20403;-76
2021/06/09 06:34:50;;;;;;;16.63;14.48;;;;;;;;;;4978891;28;20118;-76
2021/06/09 06:37:17;;;;;;;23.58;15.43;;;;;;;;;;4991242;28;20120;-76
2021/06/09 06:39:46;;;;;;;20.55;13.35;;;;;;;;;;4977780;28;20038;-77
2021/06/09 06:42:12;;;;;;;28.02;14.63;;;;;;;;;;4982043;28;20157;-75
2021/06/09 06:44:40;;;;;;;19.98;13.73;;;;;;;;;;4981431;28;20065;-75
2021/06/09 06:47:08;;;;;;;22.88;13.70;;;;;;;;;;4983558;28;20055;-75
2021/06/09 06:49:36;;;;;;;25.58;13.60;;;;;;;;;;4983778;28;20027;-76
2021/06/09 06:52:03;;;;;;;23.30;13.40;;;;;;;;;;4985717;28;20188;-77
2021/06/09 06:54:30;;;;;;;18.00;12.80;;;;;;;;;;4978844;28;20105;-75
2021/06/09 06:56:56;;;;;;;18.35;14.00;;;;;;;;;;4978475;28;20025;-76
2021/06/09 06:59:23;;;;;;;12.35;10.27;;;;;;;;;;4973770;28;20038;-74
2021/06/09 07:01:50;;;;;;;15.68;10.13;;;;;;;;;;4975435;28;20026;-76
2021/06/09 07:04:18;;;;;;;14.73;10.88;;;;;;;;;;4982366;28;20459;-76
2021/06/09 07:06:50;;;;;;;11.95;9.70;;;;;;;;;;4982024;28;20249;-77
2021/06/09 07:09:18;;;;;;;12.15;10.40;;;;;;;;;;4988307;28;20022;-77
2021/06/09 07:11:48;;;;;;;30.20;12.10;;;;;;;;;;4985463;28;20121;-77
2021/06/09 07:14:14;;;;;;;14.43;9.70;;;;;;;;;;4980481;28;20066;-76
2021/06/09 07:16:43;;;;;;;19.58;12.20;;;;;;;;;;4983233;28;20057;-74
2021/06/09 07:19:11;;;;;;;14.95;11.70;;;;;;;;;;4992149;28;20037;-74
2021/06/09 07:21:39;;;;;;;18.05;11.32;;;;;;;;;;4951648;28;20108;-77
2021/06/09 07:24:06;;;;;;;23.30;11.13;;;;;;;;;;4982600;28;20445;-76
2021/06/09 07:26:35;;;;;;;13.48;10.75;;;;;;;;;;4984283;28;20117;-76
2021/06/09 07:29:01;;;;;;;17.77;11.30;;;;;;;;;;4975445;28;20029;-74
2021/06/09 07:31:30;;;;;;;21.35;9.90;;;;;;;;;;4986519;28;20113;-74
2021/06/09 07:33:56;;;;;;;13.85;9.93;;;;;;;;;;4968697;28;20419;-77
2021/06/09 07:36:51;;;;;;;13.50;10.30;;;;;;;;;;4984618;28;20037;-75
2021/06/09 07:39:53;;;;;;;13.02;9.30;;;;;;;;;;4986102;28;20475;-75
2021/06/09 07:42:22;;;;;;;12.73;9.23;;;;;;;;;;4986470;28;20088;-74
2021/06/09 07:44:56;;;;;;;13.38;10.48;;;;;;;;;;4980799;28;20050;-77
2021/06/09 07:47:23;;;;;;;18.60;10.45;;;;;;;;;;4982671;28;20038;-75
2021/06/09 07:49:53;;;;;;;13.70;10.60;;;;;;;;;;4983532;28;20049;-77
2021/06/09 07:52:21;;;;;;;13.93;10.43;;;;;;;;;;4983778;28;20034;-77
2021/06/09 07:54:49;;;;;;;14.52;11.07;;;;;;;;;;4969045;28;20038;-74
2021/06/09 07:57:15;;;;;;;17.88;10.88;;;;;;;;;;4983888;28;20041;-75
2021/06/09 07:59:43;;;;;;;19.77;11.27;;;;;;;;;;4983695;28;20073;-76
2021/06/09 08:02:17;;;;;;;19.73;10.40;;;;;;;;;;4986909;28;20121;-76
2021/06/09 08:04:44;;;;;;;15.68;11.68;;;;;;;;;;4994139;28;20061;-74
2021/06/09 08:07:10;;;;;;;20.65;11.93;;;;;;;;;;4982789;28;20136;-76
2021/06/09 08:09:35;;;;;;;17.30;11.95;;;;;;;;;;4995917;28;20037;-76
2021/06/09 08:12:03;;;;;;;20.48;11.02;;;;;;;;;;4982924;28;20503;-75
2021/06/09 08:14:29;;;;;;;17.08;11.73;;;;;;;;;;4974036;28;20045;-75
2021/06/09 08:16:55;;;;;;;18.10;11.55;;;;;;;;;;4981200;28;20092;-75
2021/06/09 08:19:23;;;;;;;18.67;11.02;;;;;;;;;;4986813;28;20060;-76
2021/06/09 08:21:49;;;;;;;13.48;10.10;;;;;;;;;;4997761;28;20549;-75
2021/06/09 08:24:14;;;;;;;15.77;10.05;;;;;;;;;;4982272;28;21252;-76
2021/06/09 08:26:41;;;;;;;17.23;11.60;;;;;;;;;;4986056;28;20048;-76
2021/06/09 08:29:08;;;;;;;13.45;9.57;;;;;;;;;;4982792;28;20175;-75
2021/06/09 08:31:35;;;;;;;12.10;9.15;;;;;;;;;;4980352;28;20136;-75
2021/06/09 08:34:02;;;;;;;12.20;8.13;;;;;;;;;;4978907;28;20030;-74
2021/06/09 08:36:29;;;;;;;12.23;7.03;;;;;;;;;;4965458;28;20064;-75
2021/06/09 08:38:57;;;;;;;10.52;7.38;;;;;;;;;;4979932;28;20052;-76
2021/06/09 08:41:27;;;;;;;13.93;8.52;;;;;;;;;;4983401;28;20129;-76
2021/06/09 08:43:53;;;;;;;9.02;7.28;;;;;;;;;;4979480;28;20072;-76
2021/06/09 08:46:19;;;;;;;7.82;6.50;;;;;;;;;;4981175;28;20046;-76
2021/06/09 08:48:46;;;;;;;13.88;7.50;;;;;;;;;;4982977;28;20026;-75
2021/06/09 08:51:15;;;;;;;9.32;7.22;;;;;;;;;;4982676;28;20038;-74
2021/06/09 08:53:47;;;;;;;8.50;7.18;;;;;;;;;;4982875;28;20093;-74
2021/06/09 08:56:13;;;;;;;8.88;7.78;;;;;;;;;;4980252;28;20056;-73
2021/06/09 08:58:40;;;;;;;12.18;8.57;;;;;;;;;;4965693;28;20042;-73
2021/06/09 09:01:08;;;;;;;13.73;8.77;;;;;;;;;;4983461;28;20112;-75
2021/06/09 09:03:35;;;;;;;8.70;7.78;;;;;;;;;;4966517;28;20689;-76
2021/06/09 09:06:02;;;;;;;8.82;7.78;;;;;;;;;;4965176;28;20372;-74
2021/06/09 09:08:29;;;;;;;11.00;7.70;;;;;;;;;;4983319;28;20065;-75
2021/06/09 09:10:55;;;;;;;12.00;7.30;;;;;;;;;;4985448;28;20018;-75
2021/06/09 09:13:21;;;;;;;9.68;7.88;;;;;;;;;;4980440;28;20088;-75
2021/06/09 09:15:47;;;;;;;9.73;8.60;;;;;;;;;;4965960;28;20084;-76
2021/06/09 09:18:14;;;;;;;8.90;7.40;;;;;;;;;;4985234;28;20121;-73
2021/06/09 09:20:46;;;;;;;16.55;9.77;;;;;;;;;;4986075;28;20047;-74
2021/06/09 09:23:28;;;;;;;13.25;9.35;;;;;;;;;;4984906;28;20072;-75
2021/06/09 09:25:56;;;;;;;10.10;9.10;;;;;;;;;;4980860;28;20030;-76
2021/06/09 09:28:32;;;;;;;10.38;9.20;;;;;;;;;;4983206;28;20034;-76
2021/06/09 09:31:14;;;;;;;12.68;9.52;;;;;;;;;;4981100;28;20018;-77
2021/06/09 09:33:40;;;;;;;14.68;9.77;;;;;;;;;;4986429;28;20034;-76
2021/06/09 09:36:28;;;;;;;14.45;9.18;;;;;;;;;;4998068;28;20490;-75
2021/06/09 09:38:59;;;;;;;10.57;8.73;;;;;;;;;;4987817;28;20053;-76
2021/06/09 09:41:30;;;;;;;12.30;8.88;;;;;;;;;;4985910;28;20054;-76
2021/06/09 09:44:05;;;;;;;10.15;8.77;;;;;;;;;;4982391;28;20506;-76
2021/06/09 09:46:35;;;;;;;10.05;7.72;;;;;;;;;;4984907;28;20165;-75
2021/06/09 09:49:10;;;;;;;13.60;7.50;;;;;;;;;;4985365;28;20517;-75
2021/06/09 09:52:00;;;;;;;10.23;7.07;;;;;;;;;;4987897;28;20057;-75
2021/06/09 09:54:31;;;;;;;9.50;6.57;;;;;;;;;;4981600;28;20034;-76
2021/06/09 09:56:59;;;;;;;9.65;7.80;;;;;;;;;;4980902;28;20041;-76
2021/06/09 09:59:27;;;;;;;14.48;7.95;;;;;;;;;;4983642;28;20034;-75
2021/06/09 10:01:55;;;;;;;10.02;8.05;;;;;;;;;;4995566;28;20038;-74
2021/06/09 10:04:34;;;;;;;10.10;8.02;;;;;;;;;;4983268;28;20022;-75
2021/06/09 10:07:01;;;;;;;15.07;8.45;;;;;;;;;;4973135;28;20083;-74
2021/06/09 10:09:35;;;;;;;10.00;8.35;;;;;;;;;;4981825;28;20026;-76
2021/06/09 10:12:10;;;;;;;31.85;8.52;;;;;;;;;;4983938;28;20472;-74
2021/06/09 10:14:47;;;;;;;21.20;8.75;;;;;;;;;;4985020;28;20040;-74
2021/06/09 10:17:26;;;;;;;11.07;6.72;;;;;;;;;;4986642;28;20125;-75
2021/06/09 10:20:00;;;;;;;16.42;6.63;;;;;;;;;;4984101;28;20046;-74
2021/06/09 10:22:34;;;;;;;9.30;6.13;;;;;;;;;;4999782;28;20149;-74
2021/06/09 10:25:11;;;;;;;27.50;8.68;;;;;;;;;;4983536;28;20040;-76
2021/06/09 10:27:53;;;;;;;11.00;7.68;;;;;;;;;;4984489;28;20042;-76
2021/06/09 10:30:29;;;;;;;13.38;7.22;;;;;;;;;;4982892;28;20065;-78
2021/06/09 10:33:00;;;;;;;8.32;7.43;;;;;;;;;;4981535;28;20084;-74
2021/06/09 10:35:38;;;;;;;10.93;7.10;;;;;;;;;;4981257;28;20116;-76
2021/06/09 10:38:04;;;;;;;9.93;6.85;;;;;;;;;;4978947;28;21028;-74
2021/06/09 10:40:32;;;;;;;9.52;7.40;;;;;;;;;;4996333;28;20034;-76
2021/06/09 10:43:01;;;;;;;7.82;6.82;;;;;;;;;;4964587;28;20487;-75
2021/06/09 10:45:30;;;;;;;13.95;8.52;;;;;;;;;;4970456;28;20105;-78
2021/06/09 10:47:58;;;;;;;8.13;6.00;;;;;;;;;;4986584;28;20069;-76
2021/06/09 10:50:25;;;;;;;6.97;6.38;;;;;;;;;;4978323;28;20038;-77
2021/06/09 10:52:50;;;;;;;7.57;6.40;;;;;;;;;;4984049;28;20030;-77
2021/06/09 10:55:17;;;;;;;9.05;7.03;;;;;;;;;;4979333;28;20084;-76
2021/06/09 10:57:43;;;;;;;8.48;6.70;;;;;;;;;;4982997;28;20037;-78
2021/06/09 11:00:12;;;;;;;7.53;6.18;;;;;;;;;;4993533;28;20034;-76
2021/06/09 11:02:39;;;;;;;7.68;6.57;;;;;;;;;;4979286;28;20041;-76
2021/06/09 11:05:08;;;;;;;7.15;6.45;;;;;;;;;;4980617;28;20036;-78
2021/06/09 11:07:39;;;;;;;7.55;6.85;;;;;;;;;;4980840;28;20127;-76
2021/06/09 11:10:07;;;;;;;7.97;6.70;;;;;;;;;;4982905;28;20022;-78
2021/06/09 11:12:44;;;;;;;8.18;6.07;;;;;;;;;;4979494;28;20509;-76
2021/06/09 11:15:11;;;;;;;11.93;6.30;;;;;;;;;;4973705;28;21040;-76
2021/06/09 11:17:57;;;;;;;7.13;6.43;;;;;;;;;;4979432;28;20039;-79
2021/06/09 11:20:38;;;;;;;14.40;6.13;;;;;;;;;;4980247;28;20042;-75
2021/06/09 11:23:23;;;;;;;9.88;7.18;;;;;;;;;;4978661;28;20044;-74
2021/06/09 11:25:49;;;;;;;8.48;5.97;;;;;;;;;;4977347;28;20038;-76
2021/06/09 11:28:34;;;;;;;7.70;6.13;;;;;;;;;;4975003;28;20030;-74
2021/06/09 11:31:09;;;;;;;7.45;6.63;;;;;;;;;;4972883;28;20057;-75
2021/06/09 11:33:54;;;;;;;7.03;5.45;;;;;;;;;;4978375;28;20038;-75
2021/06/09 11:36:19;;;;;;;5.60;5.10;;;;;;;;;;4982673;28;20050;-75
2021/06/09 11:39:19;;;;;;;6.78;5.20;;;;;;;;;;4986779;28;20041;-76
2021/06/09 11:41:48;;;;;;;5.78;5.28;;;;;;;;;;4986572;28;20034;-78
2021/06/09 11:44:33;;;;;;;4.95;4.43;;;;;;;;;;4972387;28;20034;-78
2021/06/09 11:47:27;;;;;;;7.43;5.05;;;;;;;;;;4967460;28;20089;-74
2021/06/09 11:50:14;;;;;;;6.28;4.97;;;;;;;;;;4985431;28;20066;-76
2021/06/09 11:53:19;;;;;;;5.90;5.38;;;;;;;;;;4983978;28;20089;-77
2021/06/09 11:56:28;;;;;;;6.10;4.80;;;;;;;;;;4984634;28;20033;-77
2021/06/09 11:59:03;;;;;;;5.30;4.80;;;;;;;;;;4981382;28;20495;-78
2021/06/09 12:01:44;;;;;;;5.28;4.70;;;;;;;;;;4980229;28;20061;-76
2021/06/09 12:04:19;;;;;;;4.82;4.38;;;;;;;;;;4966039;28;20048;-75
2021/06/09 12:06:49;;;;;;;5.13;4.63;;;;;;;;;;4980665;28;20042;-76
2021/06/09 12:09:18;;;;;;;19.15;13.02;;;;;;;;;;4980388;28;20030;-75
2021/06/09 12:11:46;;;;;;;5.20;4.45;;;;;;;;;;4994514;28;20031;-78
2021/06/09 12:14:48;;;;;;;6.57;4.00;;;;;;;;;;4995926;28;20097;-78
2021/06/09 12:17:23;;;;;;;4.88;4.13;;;;;;;;;;4987362;28;20038;-76
2021/06/09 12:19:56;;;;;;;4.53;4.10;;;;;;;;;;4979639;28;20124;-77
2021/06/09 12:22:25;;;;;;;3.80;3.45;;;;;;;;;;4978796;28;20197;-76
2021/06/09 12:25:09;;;;;;;4.47;4.07;;;;;;;;;;4984574;28;20030;-79
2021/06/09 12:27:38;;;;;;;5.43;4.20;;;;;;;;;;5000197;28;20462;-77
2021/06/09 12:30:20;;;;;;;8.30;3.92;;;;;;;;;;4975012;28;20049;-78
2021/06/09 12:32:51;;;;;;;3.45;3.13;;;;;;;;;;4999634;28;20034;-76
2021/06/09 12:35:21;;;;;;;6.82;3.90;;;;;;;;;;4983596;28;21244;-77
2021/06/09 12:37:53;;;;;;;3.92;3.63;;;;;;;;;;4983226;28;21467;-78
2021/06/09 12:40:23;;;;;;;4.22;3.20;;;;;;;;;;4982299;28;20045;-77
2021/06/09 12:43:03;;;;;;;3.35;3.05;;;;;;;;;;4982260;28;20058;-77
2021/06/09 12:45:31;;;;;;;3.22;2.90;;;;;;;;;;4982746;28;20128;-75
2021/06/09 12:48:12;;;;;;;3.55;3.25;;;;;;;;;;4977514;28;20041;-76
2021/06/09 12:50:40;;;;;;;7.60;3.97;;;;;;;;;;4981975;28;20042;-74
2021/06/09 12:53:13;;;;;;;5.40;3.47;;;;;;;;;;4980517;28;20034;-75
2021/06/09 12:55:42;;;;;;;4.72;3.10;;;;;;;;;;4982160;28;20759;-77
2021/06/09 12:58:09;;;;;;;3.47;3.17;;;;;;;;;;4985524;28;20038;-75
2021/06/09 13:00:42;;;;;;;4.05;3.15;;;;;;;;;;4980747;28;20121;-78
2021/06/09 13:03:10;;;;;;;8.88;5.63;;;;;;;;;;4985134;28;20041;-77
2021/06/09 13:05:36;;;;;;;5.82;3.17;;;;;;;;;;4983852;28;20118;-77
2021/06/09 13:08:35;;;;;;;5.15;3.47;;;;;;;;;;4979667;28;20121;-78
2021/06/09 13:11:05;;;;;;;6.00;3.63;;;;;;;;;;4991130;28;20061;-76
2021/06/09 13:13:31;;;;;;;6.93;2.63;;;;;;;;;;4976455;28;20042;-75
2021/06/09 13:16:02;;;;;;;3.13;2.90;;;;;;;;;;4983161;28;20370;-77
2021/06/09 13:18:44;;;;;;;4.93;3.22;;;;;;;;;;4979481;28;20035;-76
2021/06/09 13:21:29;;;;;;;2.70;2.50;;;;;;;;;;4982187;28;20123;-77
2021/06/09 13:24:13;;;;;;;3.05;2.80;;;;;;;;;;5001660;28;20117;-77
2021/06/09 13:26:40;;;;;;;5.05;3.28;;;;;;;;;;4977968;28;20398;-78
2021/06/09 13:29:37;;;;;;;6.63;2.85;;;;;;;;;;4983480;28;20546;-75
2021/06/09 13:32:25;;;;;;;5.00;3.17;;;;;;;;;;4990800;28;20042;-75
2021/06/09 13:35:17;;;;;;;7.18;3.10;;;;;;;;;;4995067;28;20022;-77
2021/06/09 13:37:48;;;;;;;6.47;3.50;;;;;;;;;;4979746;28;20521;-77
2021/06/09 13:40:22;;;;;;;;;;;;;;;;;;4987635;28;20038;-76
2021/06/09 13:43:09;;;;;;;4.25;2.75;;;;;;;;;;4991496;28;19922;-77
2021/06/09 13:45:40;;;;;;;4.20;3.42;;;;;;;;;;4979441;28;20054;-76
2021/06/09 13:48:09;;;;;;;10.23;2.83;;;;;;;;;;4990909;28;20022;-74
2021/06/09 13:50:39;;;;;;;10.40;4.60;;;;;;;;;;5001395;28;20041;-77
2021/06/09 13:53:11;;;;;;;8.65;3.63;;;;;;;;;;4987511;28;20052;-76
2021/06/09 13:55:42;;;;;;;6.38;3.40;;;;;;;;;;4985878;28;20031;-76
2021/06/09 13:58:19;;;;;;;;;;;;;;;;;;4984701;28;20046;-76
2021/06/09 14:00:45;;;;;;;7.10;4.40;;;;;;;;;;4979700;28;20421;-75
2021/06/09 14:03:29;;;;;;;6.57;3.83;;;;;;;;;;4981764;28;20025;-76
2021/06/09 14:05:56;;;;;;;11.40;3.83;;;;;;;;;;4979697;28;20690;-75
2021/06/09 14:08:22;;;;;;;5.88;4.25;;;;;;;;;;4985448;28;20597;-75
2021/06/09 14:10:52;;;;;;;8.52;5.05;;;;;;;;;;4982691;28;20038;-77
2021/06/09 14:13:21;;;;;;;5.57;5.03;;;;;;;;;;4975722;28;20042;-75
2021/06/09 14:15:56;;;;;;;7.88;4.75;;;;;;;;;;4986136;28;20133;-76
2021/06/09 14:18:32;;;;;;;8.68;5.38;;;;;;;;;;4993310;28;20030;-74
2021/06/09 14:20:59;;;;;;;5.32;4.82;;;;;;;;;;4988085;28;20030;-74
2021/06/09 14:23:29;;;;;;;8.77;5.55;;;;;;;;;;5005198;28;20030;-75
2021/06/09 14:25:58;;;;;;;5.95;5.30;;;;;;;;;;5018987;28;20522;-75
2021/06/09 14:28:44;;;;;;;8.70;6.88;;;;;;;;;;4986355;28;20041;-77
2021/06/09 14:31:23;;;;;;;6.88;5.35;;;;;;;;;;4991734;28;20022;-76
2021/06/09 14:33:53;;;;;;;6.50;4.85;;;;;;;;;;4987182;28;20030;-75
2021/06/09 14:39:23;;;;;;;5.25;4.15;;;;;;;;;;4998731;28;20597;-76
2021/06/09 14:41:50;;;;;;;7.88;5.57;;;;;;;;;;4994643;28;20026;-77
2021/06/09 14:44:35;;;;;;;8.88;5.20;;;;;;;;;;4988094;28;20188;-76
2021/06/09 14:49:56;;;;;;;7.97;5.53;;;;;;;;;;4993870;28;20482;-77
2021/06/09 14:52:30;;;;;;;9.00;5.28;;;;;;;;;;4980195;28;20022;-76
2021/06/09 14:54:59;;;;;;;5.93;5.00;;;;;;;;;;4980453;28;20108;-76